Warrenton, OR

12:11 AM PDT on July 26, 2016 (GMT -0700)
Astoria Regional | | Change Station

Elev 10 ft 46.16 °N, 123.88 °W | Updated 16 minutes ago

Overcast
Overcast
61 °F
Feels Like 61 °F
N
9
Wind Variable Wind from North

Today
High -- | Low -- °F
--% Chance of Precip.
Yesterday
High -- | Low -- °F
Precip. -- in
Pressure 30.15 in
Visibility 10.0 miles
Clouds Overcast 1200 ft
Dew Point 56 °F
Humidity 83%
Rainfall 0.01 in
Snow Depth Not available.
5:51 AM 8:52 PM
Waning Gibbous, 57% visible
METAR KAST 260655Z AUTO 35008KT 10SM OVC012 16/13 A3015 RMK AO2 RAE05 SLP209 P0000 T01610133
Pressure 30.15 in
Visibility 10.0 miles
Clouds Overcast 1200 ft
Dew Point 56 °F
Humidity 83%
Rainfall 0.01 in
Snow Depth Not available.
5:51 AM 8:52 PM
Waning Gibbous, 57% visible
METAR KAST 260655Z AUTO 35008KT 10SM OVC012 16/13 A3015 RMK AO2 RAE05 SLP209 P0000 T01610133

10-Day Weather Forecast

Almanac

Astronomy

Jul. 26, 2016 Rise Set
Actual Time
Civil Twilight
Nautical Twilight
Astronomical Twilight
Moon
Length of Visible Light
Length of Day
Tomorrow will be .
, % of the Moon is Illuminated

Today's Extremes

State Highs State Lows

Community

WunderPhotos

Upload Photos

1,927,552 photos uploaded!

WunderBlog® & News

Nearby

Air Quality

  Air Quality AQ Index Pollutant
Not available.

Snow Depth

Station Depth Elevation

Earthquake Activity

City Distance Mag. Time & Date
Minimum magnitude displayed is 2.5.

Coastal Water Temperatures

Place Temperature

Stations

Nearby Weather Stations

Station Location Temp. Windchill Dew Point Humidity Wind Precip. Elev Updated Type
                   

Watches & Warnings

There are currently no watches in effect.